Time;durP1;ratioP1;P1;durP2;ratioP2;P2;SDS_P1;SDS_P2;PMS_P1;PMS_P2;Temp;Humidity;BMP_temperature;BMP_pressure;BME280_temperature;BME280_humidity;BME280_pressure;Samples;Min_cycle;Max_cycle;Signal;HPM_P1;HPM_P2
2022/10/04 09:54:19;;;;;;;;;;;16.00;99.90;;;;;;6184226;23;20069;-77
2022/10/04 09:57:19;;;;;;;;;;;16.10;99.90;;;;;;6152951;23;19912;-76
2022/10/04 10:00:34;;;;;;;;;;;16.00;99.90;;;;;;6157543;23;20338;-77
2022/10/04 10:07:27;;;;;;;;;;;16.10;99.90;;;;;;6095975;23;20465;-78
2022/10/04 10:13:46;;;;;;;;;;;16.00;99.90;;;;;;6071790;23;19992;-77
2022/10/04 10:29:16;;;;;;;;;;;16.10;99.90;;;;;;6065746;23;19913;-81
2022/10/04 10:35:12;;;;;;;;;;;16.50;99.90;;;;;;6056602;23;19913;-77
2022/10/04 10:37:55;;;;;;;;;;;16.60;99.90;;;;;;6047799;23;20275;-77
2022/10/04 10:43:50;;;;;;;;;;;16.40;99.90;;;;;;6096082;23;19920;-80
2022/10/04 10:49:20;;;;;;;;;;;16.40;99.90;;;;;;6042390;23;19924;-76
2022/10/04 10:55:57;;;;;;;;;;;16.30;99.90;;;;;;6069313;23;19945;-76
2022/10/04 10:59:12;;;;;;;;;;;;;;;;;;;;;
2022/10/04 11:02:37;;;;;;;;;;;;;;;;;;;;;
2022/10/04 11:05:29;;;;;;;;;;;16.30;99.90;;;;;;6009473;23;20396;-76
2022/10/04 11:07:54;;;;;;;;;;;16.20;99.90;;;;;;6014313;23;20261;-78
2022/10/04 11:10:25;;;;;;;;;;;16.30;99.90;;;;;;5990381;23;19965;-74
2022/10/04 11:13:34;;;;;;;;;;;16.30;99.90;;;;;;6014614;23;19957;-76
2022/10/04 11:16:21;;;;;;;;;;;16.20;99.90;;;;;;5990336;23;19989;-78
2022/10/04 11:19:09;;;;;;;;;;;16.20;99.90;;;;;;6013118;23;20252;-76
2022/10/04 11:25:13;;;;;;;;;;;16.20;99.90;;;;;;6056468;23;19917;-76
2022/10/04 11:28:01;;;;;;;;;;;16.20;99.90;;;;;;6018325;23;20317;-76
2022/10/04 11:30:57;;;;;;;;;;;16.10;99.90;;;;;;6047646;23;19921;-78
2022/10/04 11:33:58;;;;;;;;;;;16.00;99.90;;;;;;6120644;23;19913;-77
2022/10/04 11:36:33;;;;;;;;;;;16.00;99.90;;;;;;6105209;23;19912;-76
2022/10/04 11:39:39;;;;;;;;;;;15.90;99.90;;;;;;6150446;23;19916;-76
2022/10/04 11:42:44;;;;;;;;;;;15.90;99.90;;;;;;6105688;23;19983;-77
2022/10/04 11:45:32;;;;;;;;;;;16.00;99.90;;;;;;6130486;23;19913;-76
2022/10/04 11:48:10;;;;;;;;;;;16.30;99.90;;;;;;6106162;23;19917;-78
2022/10/04 11:50:50;;;;;;;;;;;16.40;99.90;;;;;;6130567;23;19996;-78
2022/10/04 11:53:38;;;;;;;;;;;16.50;99.90;;;;;;6105036;23;19952;-78
2022/10/04 11:56:22;;;;;;;;;;;16.40;99.90;;;;;;6130374;23;20271;-77
2022/10/04 11:58:56;;;;;;;;;;;16.50;99.90;;;;;;6130486;23;20366;-76
2022/10/04 12:01:40;;;;;;;;;;;16.50;99.90;;;;;;6105891;23;20288;-75
2022/10/04 12:04:19;;;;;;;;;;;16.40;99.90;;;;;;6105673;23;19916;-76
2022/10/04 12:06:57;;;;;;;;;;;16.30;99.90;;;;;;6106360;23;19916;-76
2022/10/04 12:10:03;;;;;;;;;;;16.50;99.90;;;;;;6107987;23;19912;-77
2022/10/04 12:12:50;;;;;;;;;;;16.60;99.90;;;;;;6069273;23;19913;-76
2022/10/04 12:15:25;;;;;;;;;;;16.70;99.90;;;;;;6064506;23;19927;-77
2022/10/04 12:18:09;;;;;;;;;;;16.70;99.90;;;;;;6105552;23;19963;-77
2022/10/04 12:20:53;;;;;;;;;;;16.80;99.90;;;;;;6107835;23;19917;-77
2022/10/04 12:38:20;;;;;;;;;;;16.70;99.90;;;;;;6064358;23;19913;-72
2022/10/04 12:44:33;;;;;;;;;;;16.90;99.90;;;;;;5949135;24;19915;-77
2022/10/04 12:50:59;;;;;;;;;;;16.80;99.90;;;;;;6015238;23;19965;-77
2022/10/04 12:57:37;;;;;;;;;;;16.80;99.90;;;;;;5958767;23;19921;-76
2022/10/04 13:00:42;;;;;;;;;;;;;;;;;;;;;
2022/10/04 13:09:50;;;;;;;;;;;16.80;99.90;;;;;;6094147;23;19920;-77
2022/10/04 13:16:14;;;;;;;;;;;;;;;;;;;;;
2022/10/04 13:19:02;;;;;;;;;;;16.60;99.90;;;;;;6131196;23;19913;-76
2022/10/04 13:21:52;;;;;;;;;;;16.60;99.90;;;;;;6101608;23;19952;-76
2022/10/04 13:25:16;;;;;;;;;;;16.60;99.90;;;;;;6135821;23;19924;-75
2022/10/04 13:28:32;;;;;;;;;;;16.70;99.90;;;;;;6099282;23;19987;-77
2022/10/04 13:31:33;;;;;;;;;;;16.70;99.90;;;;;;6130599;23;19913;-76
2022/10/04 13:34:43;;;;;;;;;;;;;;;;;;;;;
2022/10/04 13:37:43;;;;;;;;;;;16.70;99.90;;;;;;6129697;23;20238;-75
2022/10/04 13:40:46;;;;;;;;;;;16.70;99.90;;;;;;6046825;23;19913;-76
2022/10/04 13:44:13;;;;;;;;;;;;;;;;;;;;;
2022/10/04 13:47:04;;;;;;;;;;;;;;;;;;;;;
2022/10/04 13:50:16;;;;;;;;;;;16.80;99.90;;;;;;6010244;23;19960;-77
2022/10/04 13:56:56;;;;;;;;;;;;;;;;;;;;;
2022/10/04 14:00:06;;;;;;;;;;;;;;;;;;;;;
2022/10/04 14:06:15;;;;;;;;;;;16.60;99.90;;;;;;6035029;23;19914;-77
2022/10/04 14:09:36;;;;;;;;;;;;;;;;;;;;;
2022/10/04 14:12:20;;;;;;;;;;;16.70;99.90;;;;;;6009007;23;20009;-77
2022/10/04 14:25:38;;;;;;;;;;;16.80;99.90;;;;;;5952821;24;19990;-76
2022/10/04 14:28:47;;;;;;;;;;;;;;;;;;;;;
2022/10/04 14:31:45;;;;;;;;;;;16.80;99.90;;;;;;5953066;24;19937;-76
2022/10/04 14:37:53;;;;;;;;;;;16.90;99.90;;;;;;5981098;24;20131;-78
2022/10/04 14:40:40;;;;;;;;;;;16.90;99.90;;;;;;5980710;23;19913;-77
2022/10/04 15:24:38;;;;;;;;;;;16.40;99.90;;;;;;6209953;22;19921;-75
2022/10/04 15:27:25;;;;;;;;;;;16.30;99.90;;;;;;6257205;22;19915;-75
2022/10/04 15:29:50;;;;;;;;;;;16.30;99.90;;;;;;6280660;22;19923;-77
2022/10/04 15:32:25;;;;;;;;;;;16.30;99.90;;;;;;6280979;22;19963;-80
2022/10/04 15:35:19;;;;;;;;;;;16.30;99.90;;;;;;6255029;22;20229;-80
2022/10/04 15:38:19;;;;;;;;;;;16.30;99.90;;;;;;6278785;22;19957;-82
2022/10/04 15:41:06;;;;;;;;;;;16.20;99.90;;;;;;6267205;22;19914;-77
2022/10/04 15:57:40;;;;;;;;;;;;;;;;;;;;;
2022/10/04 16:11:27;;;;;;;;;;;;;;;;;;;;;
2022/10/04 17:57:29;;;;;;;;;;;14.90;99.90;;;;;;6249166;22;19957;-72
2022/10/04 18:00:08;;;;;;;;;;;14.90;99.90;;;;;;6249861;22;19915;-72
2022/10/04 18:02:36;;;;;;;;;;;14.90;99.90;;;;;;6224111;22;19982;-70
2022/10/04 18:05:12;;;;;;;;;;;14.90;99.90;;;;;;6224249;22;19934;-74
2022/10/04 18:07:40;;;;;;;;;;;14.90;99.90;;;;;;6249661;22;19915;-70
2022/10/04 18:10:26;;;;;;;;;;;14.90;99.90;;;;;;6249526;22;19921;-71
2022/10/04 18:23:53;;;;;;;;;;;14.80;99.90;;;;;;5979998;23;19913;-80
2022/10/04 18:26:21;;;;;;;;;;;14.90;99.90;;;;;;5968491;23;19938;-77
2022/10/04 18:28:48;;;;;;;;;;;14.90;99.90;;;;;;6041870;23;19921;-78
2022/10/04 18:32:00;;;;;;;;;;;;;;;;;;;;;
2022/10/04 18:38:14;;;;;;;;;;;14.90;99.90;;;;;;6038285;23;19949;-80
2022/10/04 18:41:50;;;;;;;;;;;14.90;99.90;;;;;;6011239;23;19969;-79
2022/10/04 18:44:18;;;;;;;;;;;14.90;99.90;;;;;;6039698;23;19913;-77
2022/10/04 18:46:59;;;;;;;;;;;14.90;99.90;;;;;;6109848;23;19975;-79
2022/10/04 18:49:29;;;;;;;;;;;14.90;99.90;;;;;;6133824;23;20305;-78
2022/10/04 18:52:10;;;;;;;;;;;15.00;99.90;;;;;;6133105;23;19912;-79
2022/10/04 18:54:57;;;;;;;;;;;15.00;99.90;;;;;;6133143;23;19979;-79
2022/10/04 19:03:07;;;;;;;;;;;15.00;99.90;;;;;;6182219;23;19919;-79
2022/10/04 19:05:50;;;;;;;;;;;15.00;99.90;;;;;;6135216;23;19948;-78
2022/10/04 19:08:40;;;;;;;;;;;15.00;99.90;;;;;;6156874;22;19915;-77
2022/10/04 19:11:29;;;;;;;;;;;15.10;99.90;;;;;;6247793;22;19911;-78
2022/10/04 19:13:55;;;;;;;;;;;15.10;99.90;;;;;;6249185;22;19911;-72
2022/10/04 19:16:34;;;;;;;;;;;15.00;99.90;;;;;;6225316;22;19961;-76
2022/10/04 19:19:00;;;;;;;;;;;15.00;99.90;;;;;;6224851;22;19911;-75
2022/10/04 19:24:51;;;;;;;;;;;15.10;99.90;;;;;;6275946;22;19941;-74
2022/10/04 19:27:25;;;;;;;;;;;15.10;99.90;;;;;;6225580;22;19937;-74
2022/10/04 19:30:19;;;;;;;;;;;15.10;99.90;;;;;;6224474;22;19934;-74
2022/10/04 19:32:44;;;;;;;;;;;15.00;99.90;;;;;;6249732;22;19990;-76
2022/10/04 19:35:36;;;;;;;;;;;15.10;99.90;;;;;;6224770;22;20274;-74
2022/10/04 19:41:27;;;;;;;;;;;15.10;99.90;;;;;;6249269;22;19918;-75
2022/10/04 19:43:59;;;;;;;;;;;15.10;99.90;;;;;;6249347;22;19911;-75
2022/10/04 19:46:52;;;;;;;;;;;15.10;99.90;;;;;;6222684;22;19911;-79
2022/10/04 19:56:34;;;;;;;;;;;15.10;99.90;;;;;;6278828;22;19949;-78
2022/10/04 20:05:40;;;;;;;;;;;15.00;99.90;;;;;;6280339;22;19907;-76
2022/10/04 20:08:16;;;;;;;;;;;14.90;99.90;;;;;;6277415;22;19910;-77
2022/10/04 20:10:42;;;;;;;;;;;14.90;99.90;;;;;;6249864;22;19915;-77
2022/10/04 20:13:59;;;;;;;;;;;;;;;;;;;;;
2022/10/04 20:16:47;;;;;;;;;;;14.90;99.90;;;;;;6251160;22;19982;-75
2022/10/04 20:19:34;;;;;;;;;;;15.00;99.90;;;;;;6226834;22;20274;-76
2022/10/04 20:22:34;;;;;;;;;;;14.80;99.90;;;;;;6220408;22;19961;-79
2022/10/04 20:25:48;;;;;;;;;;;14.90;99.90;;;;;;6232887;22;20233;-78
2022/10/04 20:28:49;;;;;;;;;;;14.90;99.90;;;;;;6251564;22;20302;-79
2022/10/04 20:32:19;;;;;;;;;;;14.90;99.90;;;;;;6125366;23;20398;-79
2022/10/04 20:38:19;;;;;;;;;;;14.80;99.90;;;;;;6279812;22;20337;-77
2022/10/04 20:40:47;;;;;;;;;;;14.90;99.90;;;;;;6252541;22;19915;-77
2022/10/04 20:43:16;;;;;;;;;;;14.80;99.90;;;;;;6224298;22;19917;-78
2022/10/04 20:53:13;;;;;;;;;;;14.90;99.90;;;;;;6189932;23;19916;-77
2022/10/04 21:27:32;;;;;;;;;;;;;;;;;;;;;
2022/10/04 21:30:59;;;;;;;;;;;;;;;;;;;;;
2022/10/04 22:10:38;;;;;;;;;;;;;;;;;;;;;
